COOK1: Arkansas River Nr Coolidge, KS

                                SHEF ID:       COOK1     ARKANSAS R NR COOLIDGE, KS
STATION TYPE:
Regulating: Stage = 8.00, Flow = 2050

PRECIP STAGE STAGE(2) RIV-FLOW WTR-TEMP CONDUCT BAT-LOAD
in ft ft cfs F umho/cm volt
Ccp-Rev Ccp-Rev Ccp-Rev Ccp-Rev Ccp-Rev Ccp-Rev Ccp-Rev
(America/Chicago)
07/15 00:00 0.00 3.91 4.03 256 80.67 3269 12.95
07/15 01:00 0.00 3.87 4.00 248 79.92 3283 12.95
07/15 02:00 0.00 3.94 4.09 262 78.51 3346 12.89
07/15 03:00 0.00 3.99 4.13 273 78.26 3242 12.89
07/15 04:00 0.00 4.01 4.15 277 77.72 3238 12.89
07/15 05:00 0.00 4.04 4.14 284 77.16 3240 12.89
07/15 06:00 0.00 4.06 4.21 288 76.57 3222 12.89
07/15 07:00 0.00 4.09 4.24 295 75.79 3200 12.89
07/15 08:00 0.00 4.10 4.25 298 75.33 3184 12.89
07/15 09:00 0.00 4.11 4.27 300 75.13 3195 12.89
07/15 10:00 0.00 4.11 4.28 300 75.20 3202 13.30
07/15 11:00 0.00 4.13 4.29 304 75.58 3209 13.48
07/15 12:00 0.00 4.10 4.28 298 76.62 3211 13.71
07/15 13:00 0.00 4.11 4.30 300 78.04 3211 13.77
07/15 14:00 0.00 4.14 4.32 307 79.72 3211 13.71
07/15 15:00 0.00 4.13 4.30 304 81.46 3213 13.59
07/15 16:00 0.00 4.14 4.33 307 82.81 3231 13.48
07/15 17:00 0.00 4.15 4.33 309 83.68 3227 13.42
07/15 18:00 0.00 4.18 4.34 316 83.77 3215 13.18
07/15 19:00 0.00 4.16 4.34 311 83.55 3209 13.12
07/15 20:00 0.00 4.17 4.35 314 83.39 3204 13.12
07/15 21:00 0.00 4.18 4.34 316 82.89 3193 13.00
07/15 22:00 0.00 4.21 4.38 323 82.00 3173 13.00
07/15 23:00 ---- ---- ---- ---- ---- ---- ----
Data processed at Tue 16Jul2024 04:30 GMT

Parsing this webpage?

Checkout our new Data API! CWMSDataAPI (CDA)

Timeseries IDs (TSIDs)

TSIDs used from left to right in the data table
COOL.Precip-Inc.Total.1Hour.1Hour.Ccp-Rev
COOL.Stage.Inst.1Hour.0.Ccp-Rev
COOL.Stage-Alt.Inst.1Hour.0.Ccp-Rev
COOL.Flow.Inst.1Hour.0.Ccp-Rev
COOL.Temp-Water.Inst.1Hour.0.Ccp-Rev
COOL.Cond.Inst.1Hour.0.Ccp-Rev
COOL.Volt-Battery Load.Inst.1Hour.0.Ccp-Rev

                            

All information presented herein is the property of the government of the United States of America and may be revised or deleted at any time without prior notice. Dissemination of this information without the expressed written consent of the Public Affairs Office, Tulsa District U.S. Army Corps of Engineers is strictly prohibited. These data are gathered electronically and, as presented, have NOT undergone any form of quality control. These data are NOT guaranteed to be valid or correct.